createdAt,value
2023-04-30T00:01:28.754Z,9.23
2023-04-30T00:03:56.293Z,9.18
2023-04-30T00:06:23.350Z,9.14
2023-04-30T00:08:50.381Z,9.08
2023-04-30T00:11:17.352Z,9.01
2023-04-30T00:13:44.447Z,8.95
2023-04-30T00:16:11.433Z,8.87
2023-04-30T00:18:39.015Z,8.81
2023-04-30T00:21:06.043Z,8.76
2023-04-30T00:23:33.042Z,8.72
2023-04-30T00:26:00.088Z,8.68
2023-04-30T00:28:27.172Z,8.65
2023-04-30T00:30:54.154Z,8.63
2023-04-30T00:33:21.319Z,8.62
2023-04-30T00:35:48.508Z,8.61
2023-04-30T00:38:15.548Z,8.59
2023-04-30T00:40:43.310Z,8.57
2023-04-30T00:43:10.288Z,8.54
2023-04-30T00:45:37.275Z,8.52
2023-04-30T00:48:04.429Z,8.48
2023-04-30T00:50:31.436Z,8.43
2023-04-30T00:52:59.694Z,8.37
2023-04-30T00:55:27.055Z,8.33
2023-04-30T00:57:54.451Z,8.28
2023-04-30T01:00:22.118Z,8.24
2023-04-30T01:02:49.950Z,8.21
2023-04-30T01:05:17.120Z,8.19
2023-04-30T01:07:46.497Z,8.16
2023-04-30T01:10:14.286Z,8.14
2023-04-30T01:12:44.324Z,8.13
2023-04-30T01:15:36.427Z,8.11
2023-04-30T01:18:09.274Z,8.08
2023-04-30T01:20:37.049Z,8.06
2023-04-30T01:23:27.221Z,8.04
2023-04-30T01:26:07.017Z,8.02
2023-04-30T01:28:35.901Z,8.00
2023-04-30T01:31:02.983Z,7.95
2023-04-30T01:33:29.910Z,7.91
2023-04-30T01:36:21.937Z,7.88
2023-04-30T01:39:04.187Z,7.86
2023-04-30T01:42:01.794Z,7.84
2023-04-30T01:44:37.955Z,7.83
2023-04-30T01:47:06.612Z,7.81
2023-04-30T01:50:12.363Z,7.78
2023-04-30T01:52:46.458Z,7.77
2023-04-30T01:55:27.784Z,7.75
2023-04-30T01:57:59.810Z,7.73
2023-04-30T02:00:27.807Z,7.71
2023-04-30T02:02:55.940Z,7.70
2023-04-30T02:05:23.147Z,7.68
2023-04-30T02:07:51.108Z,7.65
2023-04-30T02:10:20.657Z,7.63
2023-04-30T02:12:48.868Z,7.61
2023-04-30T02:15:16.197Z,7.59
2023-04-30T02:17:43.239Z,7.55
2023-04-30T02:20:10.843Z,7.54
2023-04-30T02:22:38.950Z,7.51
2023-04-30T02:25:06.313Z,7.48
2023-04-30T02:27:33.405Z,7.47
2023-04-30T02:30:00.596Z,7.47
2023-04-30T02:32:27.715Z,7.46
2023-04-30T02:34:54.767Z,7.47
2023-04-30T02:37:21.912Z,7.46
2023-04-30T02:39:49.109Z,7.46
2023-04-30T02:42:16.660Z,7.46
2023-04-30T02:44:43.819Z,7.46
2023-04-30T02:47:11.150Z,7.45
2023-04-30T02:49:38.271Z,7.44
2023-04-30T02:52:05.403Z,7.43
2023-04-30T02:54:32.421Z,7.43
2023-04-30T02:56:59.462Z,7.42
2023-04-30T02:59:27.377Z,7.42
2023-04-30T03:01:54.463Z,7.41
2023-04-30T03:04:21.462Z,7.40
2023-04-30T03:06:48.461Z,7.38
2023-04-30T03:09:15.573Z,7.36
2023-04-30T03:11:42.540Z,7.33
2023-04-30T03:14:09.489Z,7.31
2023-04-30T03:16:36.870Z,7.29
2023-04-30T03:19:03.968Z,7.29
2023-04-30T03:21:31.161Z,7.27
2023-04-30T03:23:58.139Z,7.28
2023-04-30T03:26:25.204Z,7.30
2023-04-30T03:28:55.229Z,7.32
2023-04-30T03:31:22.230Z,7.35
2023-04-30T03:33:49.462Z,7.39
2023-04-30T03:36:16.611Z,7.43
2023-04-30T03:38:43.593Z,7.46
2023-04-30T03:41:11.099Z,7.51
2023-04-30T03:43:38.249Z,7.55
2023-04-30T03:46:05.547Z,7.60
2023-04-30T03:48:32.599Z,7.64
2023-04-30T03:50:59.562Z,7.68
2023-04-30T03:53:26.909Z,7.70
2023-04-30T03:55:54.062Z,7.74
2023-04-30T03:58:21.564Z,7.77
2023-04-30T04:00:48.707Z,7.80
2023-04-30T04:03:16.246Z,7.84
2023-04-30T04:05:43.305Z,7.88
2023-04-30T04:08:10.481Z,7.92
2023-04-30T04:10:39.266Z,7.95
2023-04-30T04:13:09.424Z,7.99
2023-04-30T04:15:36.607Z,8.03
2023-04-30T04:18:03.951Z,8.07
2023-04-30T04:20:32.501Z,8.10
2023-04-30T04:22:59.613Z,8.14
2023-04-30T04:25:27.684Z,8.17
2023-04-30T04:27:54.754Z,8.22
2023-04-30T04:30:21.886Z,8.26
2023-04-30T04:32:54.145Z,8.30
2023-04-30T04:35:21.471Z,8.35
2023-04-30T04:37:48.590Z,8.40
2023-04-30T04:40:15.692Z,8.44
2023-04-30T04:42:42.776Z,8.49
2023-04-30T04:45:10.117Z,8.53
2023-04-30T04:47:37.970Z,8.58
2023-04-30T04:50:05.332Z,8.63
2023-04-30T04:52:32.323Z,8.68
2023-04-30T04:54:59.239Z,8.72
2023-04-30T04:57:26.489Z,8.76
2023-04-30T04:59:53.920Z,8.81
2023-04-30T05:02:23.570Z,8.86
2023-04-30T05:04:51.318Z,8.91
2023-04-30T05:07:19.087Z,8.97
2023-04-30T05:09:49.373Z,9.01
2023-04-30T05:12:16.384Z,9.07
2023-04-30T05:14:44.079Z,9.12
2023-04-30T05:17:11.228Z,9.17
2023-04-30T05:19:38.197Z,9.22
2023-04-30T05:22:05.478Z,9.28
2023-04-30T05:24:32.544Z,9.33
2023-04-30T05:26:59.617Z,9.39
2023-04-30T05:29:26.800Z,9.44
2023-04-30T05:31:54.802Z,9.49
2023-04-30T05:34:21.911Z,9.55
2023-04-30T05:36:50.190Z,9.61
2023-04-30T05:39:17.209Z,9.66
2023-04-30T05:41:44.350Z,9.71
2023-04-30T05:44:11.325Z,9.75
2023-04-30T05:46:38.285Z,9.79
2023-04-30T05:49:05.856Z,9.83
2023-04-30T05:51:32.951Z,9.88
2023-04-30T05:54:00.520Z,9.92
2023-04-30T05:56:27.687Z,9.97
2023-04-30T05:58:54.708Z,10.01
2023-04-30T06:01:23.378Z,10.05
2023-04-30T06:03:50.563Z,10.09
2023-04-30T06:06:17.587Z,10.13
2023-04-30T06:08:45.618Z,10.17
2023-04-30T06:11:13.250Z,10.21
2023-04-30T06:13:40.582Z,10.27
2023-04-30T06:16:08.520Z,10.30
2023-04-30T06:18:35.855Z,10.35
2023-04-30T06:21:02.805Z,10.39
2023-04-30T06:23:29.988Z,10.43
2023-04-30T06:25:57.095Z,10.47
2023-04-30T06:28:24.045Z,10.51
2023-04-30T06:30:52.032Z,10.55
2023-04-30T06:33:19.167Z,10.59
2023-04-30T06:35:46.615Z,10.63
2023-04-30T06:38:14.287Z,10.68
2023-04-30T06:40:41.291Z,10.73
2023-04-30T06:43:08.350Z,10.77
2023-04-30T06:45:35.748Z,10.82
2023-04-30T06:48:02.879Z,10.85
2023-04-30T06:50:29.993Z,10.88
2023-04-30T06:52:56.997Z,10.92
2023-04-30T06:55:24.498Z,10.96
2023-04-30T06:57:51.457Z,10.99
2023-04-30T07:00:18.748Z,11.05
2023-04-30T07:02:47.997Z,11.08
2023-04-30T07:05:16.672Z,11.12
2023-04-30T07:07:43.849Z,11.17
2023-04-30T07:10:11.003Z,11.21
2023-04-30T07:12:38.006Z,11.26
2023-04-30T07:15:05.367Z,11.30
2023-04-30T07:17:32.494Z,11.36
2023-04-30T07:19:59.665Z,11.40
2023-04-30T07:22:27.956Z,11.42
2023-04-30T07:24:55.506Z,11.46
2023-04-30T07:27:22.423Z,11.50
2023-04-30T07:29:49.384Z,11.53
2023-04-30T07:32:16.554Z,11.54
2023-04-30T07:34:43.571Z,11.56
2023-04-30T07:37:10.643Z,11.58
2023-04-30T07:39:37.694Z,11.59
2023-04-30T07:42:04.885Z,11.61
2023-04-30T07:44:31.877Z,11.63
2023-04-30T07:46:58.857Z,11.65
2023-04-30T07:49:26.069Z,11.64
2023-04-30T07:51:53.082Z,11.63
2023-04-30T07:54:20.144Z,11.63
2023-04-30T07:56:49.013Z,11.66
2023-04-30T07:59:16.181Z,11.68
2023-04-30T08:01:43.206Z,11.71
2023-04-30T08:04:10.748Z,11.72
2023-04-30T08:06:39.550Z,11.75
2023-04-30T08:09:06.568Z,11.77
2023-04-30T08:11:33.708Z,11.76
2023-04-30T08:14:00.849Z,11.76
2023-04-30T08:16:27.830Z,11.77
2023-04-30T08:18:54.880Z,11.81
2023-04-30T08:21:21.868Z,11.85
2023-04-30T08:23:50.171Z,11.88
2023-04-30T08:26:18.159Z,11.92
2023-04-30T08:28:45.152Z,11.95
2023-04-30T08:31:12.865Z,12.01
2023-04-30T08:33:41.268Z,12.09
2023-04-30T08:36:08.249Z,12.19
2023-04-30T08:38:35.206Z,12.28
2023-04-30T08:41:13.836Z,12.34
2023-04-30T08:43:41.684Z,12.41
2023-04-30T08:46:08.813Z,12.49
2023-04-30T08:48:35.871Z,12.55
2023-04-30T08:51:03.573Z,12.62
2023-04-30T08:53:31.582Z,12.73
2023-04-30T08:55:58.654Z,12.87
2023-04-30T08:58:25.840Z,12.99
2023-04-30T09:00:53.013Z,13.11
2023-04-30T09:03:22.352Z,13.19
2023-04-30T09:05:49.443Z,13.26
2023-04-30T09:08:20.420Z,13.30
2023-04-30T09:10:47.423Z,13.36
2023-04-30T09:13:14.474Z,13.43
2023-04-30T09:15:42.277Z,13.50
2023-04-30T09:18:14.594Z,13.56
2023-04-30T09:20:58.480Z,13.59
2023-04-30T09:23:25.818Z,13.59
2023-04-30T09:25:52.908Z,13.60
2023-04-30T09:28:23.859Z,13.63
2023-04-30T09:30:51.166Z,13.66
2023-04-30T09:33:18.366Z,13.67
2023-04-30T09:35:46.689Z,13.67
2023-04-30T09:38:32.703Z,13.65
2023-04-30T09:41:01.646Z,13.62
2023-04-30T09:43:29.759Z,13.62
2023-04-30T09:45:58.642Z,13.67
2023-04-30T09:48:29.504Z,13.73
2023-04-30T09:50:56.953Z,13.79
2023-04-30T09:53:24.406Z,13.82
2023-04-30T09:55:51.722Z,13.84
2023-04-30T09:58:19.170Z,13.89
2023-04-30T10:00:48.457Z,13.94
2023-04-30T10:03:16.259Z,13.98
2023-04-30T10:05:48.682Z,14.00
2023-04-30T10:08:28.859Z,14.00
2023-04-30T10:11:01.375Z,14.02
2023-04-30T10:13:31.492Z,14.04
2023-04-30T10:16:04.811Z,14.06
2023-04-30T10:18:37.499Z,14.08
2023-04-30T10:21:10.451Z,14.10
2023-04-30T10:23:43.930Z,14.10
2023-04-30T10:26:12.596Z,14.10
2023-04-30T10:28:40.841Z,14.12
2023-04-30T10:31:10.877Z,14.14
2023-04-30T10:33:54.519Z,14.14
2023-04-30T10:36:31.944Z,14.13
2023-04-30T10:38:58.909Z,14.12
2023-04-30T10:41:27.469Z,14.15
2023-04-30T10:44:02.104Z,14.22
2023-04-30T10:46:29.432Z,14.28
2023-04-30T10:48:57.276Z,14.35
2023-04-30T10:51:24.263Z,14.42
2023-04-30T10:53:53.028Z,14.49
2023-04-30T10:56:39.441Z,14.57
2023-04-30T10:59:08.355Z,14.65
2023-04-30T11:01:55.279Z,14.72
2023-04-30T11:04:22.474Z,14.79
2023-04-30T11:06:52.702Z,14.85
2023-04-30T11:09:20.487Z,14.87
2023-04-30T11:11:50.525Z,14.86
2023-04-30T11:14:20.854Z,14.84
2023-04-30T11:16:53.098Z,14.79
2023-04-30T11:19:20.021Z,14.71
2023-04-30T11:22:05.575Z,14.64
2023-04-30T11:24:54.626Z,14.58
2023-04-30T11:27:23.084Z,14.57
2023-04-30T11:29:51.565Z,14.60
2023-04-30T11:32:47.997Z,14.64
2023-04-30T11:35:18.423Z,14.68
2023-04-30T11:37:45.765Z,14.75
2023-04-30T11:40:13.633Z,14.84
2023-04-30T11:42:46.196Z,14.92
2023-04-30T11:45:14.053Z,15.01
2023-04-30T11:47:47.989Z,15.10
2023-04-30T11:50:19.608Z,15.15
2023-04-30T11:52:50.700Z,15.17
2023-04-30T11:55:19.972Z,15.15
2023-04-30T11:57:49.387Z,15.09
2023-04-30T12:00:21.346Z,15.06
2023-04-30T12:02:49.960Z,15.05
2023-04-30T12:05:28.081Z,15.02
2023-04-30T12:08:06.495Z,15.05
2023-04-30T12:10:33.603Z,15.12
2023-04-30T12:13:00.681Z,15.17
2023-04-30T12:15:29.071Z,15.20
2023-04-30T12:17:57.110Z,15.19
2023-04-30T12:20:28.300Z,15.13
2023-04-30T12:22:55.470Z,15.10
2023-04-30T12:25:22.890Z,15.10
2023-04-30T12:27:52.041Z,15.13
2023-04-30T12:30:27.010Z,15.15
2023-04-30T12:32:56.646Z,15.15
2023-04-30T12:35:24.530Z,15.10
2023-04-30T12:37:53.902Z,15.05
2023-04-30T12:40:21.833Z,14.98
2023-04-30T12:42:49.171Z,14.94
2023-04-30T12:45:52.208Z,14.95
2023-04-30T12:48:21.639Z,14.96
2023-04-30T12:50:49.424Z,14.95
2023-04-30T12:53:16.485Z,14.96
2023-04-30T12:55:43.473Z,15.01
2023-04-30T12:58:11.685Z,15.05
2023-04-30T13:00:51.573Z,15.10
2023-04-30T13:03:20.193Z,15.16
2023-04-30T13:05:49.632Z,15.22
2023-04-30T13:08:17.028Z,15.35
2023-04-30T13:10:47.162Z,15.50
2023-04-30T13:13:15.619Z,15.64
2023-04-30T13:15:43.279Z,15.75
2023-04-30T13:18:10.721Z,15.80
2023-04-30T13:20:38.301Z,15.88
2023-04-30T13:23:08.305Z,15.99
2023-04-30T13:25:35.525Z,16.13
2023-04-30T13:28:02.790Z,16.28
2023-04-30T13:30:30.780Z,16.42
2023-04-30T13:32:58.950Z,16.60
2023-04-30T13:35:26.029Z,16.84
2023-04-30T13:37:54.466Z,17.08
2023-04-30T13:40:21.543Z,17.32
2023-04-30T13:42:49.221Z,17.56
2023-04-30T13:45:16.490Z,17.78
2023-04-30T13:47:43.636Z,17.97
2023-04-30T13:50:11.101Z,18.17
2023-04-30T13:52:40.085Z,18.35
2023-04-30T13:55:08.356Z,18.53
2023-04-30T13:57:35.343Z,18.84
2023-04-30T14:00:02.605Z,19.25
2023-04-30T14:02:35.152Z,19.69
2023-04-30T14:05:06.708Z,20.03
2023-04-30T14:07:34.796Z,20.27
2023-04-30T14:10:02.533Z,20.40
2023-04-30T14:12:30.787Z,20.40
2023-04-30T14:14:58.528Z,20.23
2023-04-30T14:17:27.128Z,19.97
2023-04-30T14:19:55.051Z,19.64
2023-04-30T14:22:23.033Z,19.36
2023-04-30T14:24:52.462Z,19.11
2023-04-30T14:27:19.474Z,18.88
2023-04-30T14:29:46.570Z,18.62
2023-04-30T14:32:14.289Z,18.35
2023-04-30T14:34:41.777Z,18.09
2023-04-30T14:37:08.975Z,17.85
2023-04-30T14:39:35.918Z,17.63
2023-04-30T14:42:03.663Z,17.45
2023-04-30T14:44:31.455Z,17.28
2023-04-30T14:46:58.433Z,17.12
2023-04-30T14:49:26.344Z,16.94
2023-04-30T14:51:54.712Z,16.75
2023-04-30T14:54:22.156Z,16.56
2023-04-30T14:56:49.303Z,16.43
2023-04-30T14:59:16.344Z,16.30
2023-04-30T15:01:43.381Z,16.21
2023-04-30T15:04:10.626Z,16.08
2023-04-30T15:06:40.573Z,15.95
2023-04-30T15:09:07.656Z,15.85
2023-04-30T15:11:34.687Z,15.76
2023-04-30T15:14:01.866Z,15.66
2023-04-30T15:16:29.829Z,15.56
2023-04-30T15:18:57.045Z,15.47
2023-04-30T15:21:24.147Z,15.41
2023-04-30T15:23:51.142Z,15.35
2023-04-30T15:26:20.706Z,15.27
2023-04-30T15:28:48.059Z,15.16
2023-04-30T15:31:17.457Z,15.07
2023-04-30T15:33:44.482Z,14.96
2023-04-30T15:36:11.821Z,14.85
2023-04-30T15:38:39.480Z,14.76
2023-04-30T15:41:07.344Z,14.69
2023-04-30T15:43:34.910Z,14.62
2023-04-30T15:46:02.003Z,14.58
2023-04-30T15:48:29.039Z,14.54
2023-04-30T15:50:57.030Z,14.50
2023-04-30T15:53:24.180Z,14.47
2023-04-30T15:55:51.205Z,14.45
2023-04-30T15:58:18.278Z,14.42
2023-04-30T16:00:45.457Z,14.38
2023-04-30T16:03:12.483Z,14.34
2023-04-30T16:05:40.612Z,14.31
2023-04-30T16:08:08.042Z,14.28
2023-04-30T16:10:35.012Z,14.24
2023-04-30T16:13:01.999Z,14.20
2023-04-30T16:15:30.428Z,14.17
2023-04-30T16:17:57.539Z,14.14
2023-04-30T16:20:24.661Z,14.10
2023-04-30T16:22:52.831Z,14.06
2023-04-30T16:25:20.893Z,14.01
2023-04-30T16:27:48.102Z,13.97
2023-04-30T16:30:15.149Z,13.93
2023-04-30T16:32:42.187Z,13.89
2023-04-30T16:35:09.609Z,13.87
2023-04-30T16:37:36.656Z,13.85
2023-04-30T16:40:03.882Z,13.80
2023-04-30T16:42:31.506Z,13.75
2023-04-30T16:44:59.439Z,13.70
2023-04-30T16:47:27.608Z,13.67
2023-04-30T16:49:58.909Z,13.64
2023-04-30T16:52:25.961Z,13.60
2023-04-30T16:54:53.010Z,13.56
2023-04-30T16:57:20.279Z,13.53
2023-04-30T16:59:47.478Z,13.51
2023-04-30T17:02:14.464Z,13.49
2023-04-30T17:04:41.531Z,13.47
2023-04-30T17:07:08.740Z,13.45
2023-04-30T17:09:37.548Z,13.42
2023-04-30T17:12:05.625Z,13.38
2023-04-30T17:14:32.710Z,13.33
2023-04-30T17:16:59.716Z,13.31
2023-04-30T17:19:26.800Z,13.28
2023-04-30T17:21:53.967Z,13.27
2023-04-30T17:24:21.195Z,13.26
2023-04-30T17:26:49.315Z,13.23
2023-04-30T17:29:16.788Z,13.19
2023-04-30T17:31:44.232Z,13.13
2023-04-30T17:34:12.514Z,13.07
2023-04-30T17:36:39.508Z,13.01
2023-04-30T17:39:06.597Z,12.95
2023-04-30T17:41:33.673Z,12.90
2023-04-30T17:44:00.973Z,12.82
2023-04-30T17:46:29.048Z,12.73
2023-04-30T17:48:56.068Z,12.67
2023-04-30T17:51:23.057Z,12.62
2023-04-30T17:53:50.367Z,12.58
2023-04-30T17:56:17.796Z,12.54
2023-04-30T17:58:46.000Z,12.50
2023-04-30T18:01:13.468Z,12.44
2023-04-30T18:03:40.651Z,12.35
2023-04-30T18:06:07.751Z,12.22
2023-04-30T18:08:35.280Z,12.10
2023-04-30T18:11:05.130Z,11.97
2023-04-30T18:13:32.879Z,11.86
2023-04-30T18:16:00.062Z,11.74
2023-04-30T18:18:29.064Z,11.64
2023-04-30T18:20:56.228Z,11.55
2023-04-30T18:23:23.449Z,11.45
2023-04-30T18:25:50.484Z,11.38
2023-04-30T18:28:17.560Z,11.34
2023-04-30T18:30:45.244Z,11.33
2023-04-30T18:33:12.746Z,11.33
2023-04-30T18:35:39.728Z,11.32
2023-04-30T18:38:08.365Z,11.30
2023-04-30T18:40:35.419Z,11.27
2023-04-30T18:43:02.420Z,11.25
2023-04-30T18:45:29.601Z,11.23
2023-04-30T18:47:56.932Z,11.21
2023-04-30T18:50:25.467Z,11.15
2023-04-30T18:52:52.512Z,11.05
2023-04-30T18:55:19.559Z,10.96
2023-04-30T18:57:46.550Z,10.90
2023-04-30T19:00:17.068Z,10.87
2023-04-30T19:02:44.353Z,10.85
2023-04-30T19:05:11.564Z,10.83
2023-04-30T19:07:39.984Z,10.76
2023-04-30T19:10:07.349Z,10.66
2023-04-30T19:12:34.413Z,10.57
2023-04-30T19:15:01.476Z,10.47
2023-04-30T19:17:30.665Z,10.40
2023-04-30T19:19:59.628Z,10.37
2023-04-30T19:22:26.590Z,10.38
2023-04-30T19:24:56.079Z,10.39
2023-04-30T19:27:23.188Z,10.36
2023-04-30T19:29:50.139Z,10.29
2023-04-30T19:32:17.405Z,10.21
2023-04-30T19:34:44.583Z,10.16
2023-04-30T19:37:11.789Z,10.12
2023-04-30T19:39:40.179Z,10.08
2023-04-30T19:42:10.234Z,10.02
2023-04-30T19:44:37.297Z,9.97
2023-04-30T19:47:05.153Z,9.92
2023-04-30T19:49:34.196Z,9.87
2023-04-30T19:52:01.826Z,9.84
2023-04-30T19:54:28.775Z,9.78
2023-04-30T19:56:55.887Z,9.75
2023-04-30T19:59:23.000Z,9.76
2023-04-30T20:01:50.455Z,9.76
2023-04-30T20:04:17.463Z,9.72
2023-04-30T20:06:45.088Z,9.66
2023-04-30T20:09:12.571Z,9.64
2023-04-30T20:11:39.569Z,9.65
2023-04-30T20:14:06.605Z,9.66
2023-04-30T20:16:34.128Z,9.69
2023-04-30T20:19:01.262Z,9.71
2023-04-30T20:21:29.221Z,9.73
2023-04-30T20:23:56.412Z,9.75
2023-04-30T20:26:25.916Z,9.76
2023-04-30T20:28:53.568Z,9.74
2023-04-30T20:31:21.520Z,9.72
2023-04-30T20:33:48.691Z,9.72
2023-04-30T20:36:16.885Z,9.72
2023-04-30T20:38:43.948Z,9.70
2023-04-30T20:41:10.960Z,9.67
2023-04-30T20:43:38.376Z,9.62
2023-04-30T20:46:06.467Z,9.52
2023-04-30T20:48:33.496Z,9.43
2023-04-30T20:51:00.627Z,9.34
2023-04-30T20:53:27.595Z,9.27
2023-04-30T20:55:59.930Z,9.24
2023-04-30T20:58:30.566Z,9.24
2023-04-30T21:00:57.612Z,9.24
2023-04-30T21:03:24.961Z,9.21
2023-04-30T21:05:52.024Z,9.13
2023-04-30T21:08:18.974Z,9.05
2023-04-30T21:10:46.056Z,9.02
2023-04-30T21:13:15.074Z,9.00
2023-04-30T21:15:43.197Z,8.99
2023-04-30T21:18:10.280Z,8.96
2023-04-30T21:20:37.878Z,8.90
2023-04-30T21:23:04.881Z,8.86
2023-04-30T21:25:31.850Z,8.86
2023-04-30T21:27:58.914Z,8.89
2023-04-30T21:30:26.527Z,8.92
2023-04-30T21:32:58.704Z,8.89
2023-04-30T21:35:27.764Z,8.80
2023-04-30T21:37:55.550Z,8.70
2023-04-30T21:40:22.550Z,8.60
2023-04-30T21:42:49.970Z,8.53
2023-04-30T21:45:17.024Z,8.50
2023-04-30T21:47:44.875Z,8.50
2023-04-30T21:50:12.391Z,8.51
2023-04-30T21:52:39.478Z,8.50
2023-04-30T21:55:07.877Z,8.51
2023-04-30T21:57:34.831Z,8.52
2023-04-30T22:00:01.942Z,8.52
2023-04-30T22:02:29.845Z,8.52
2023-04-30T22:04:57.260Z,8.51
2023-04-30T22:07:24.635Z,8.51
2023-04-30T22:09:54.637Z,8.50
2023-04-30T22:12:25.090Z,8.46
2023-04-30T22:14:55.302Z,8.35
2023-04-30T22:17:22.825Z,8.26
2023-04-30T22:19:49.895Z,8.23
2023-04-30T22:22:16.865Z,8.21
2023-04-30T22:24:43.813Z,8.16
2023-04-30T22:27:10.721Z,8.09
2023-04-30T22:29:37.718Z,8.04
2023-04-30T22:32:06.434Z,8.02
2023-04-30T22:34:38.882Z,8.02
2023-04-30T22:37:06.202Z,8.02
2023-04-30T22:39:33.182Z,7.98
2023-04-30T22:42:00.138Z,7.94
2023-04-30T22:44:27.053Z,7.90
2023-04-30T22:46:56.756Z,7.86
2023-04-30T22:49:31.759Z,7.84
2023-04-30T22:51:59.796Z,7.83
2023-04-30T22:54:26.831Z,7.82
2023-04-30T22:56:53.825Z,7.82
2023-04-30T22:59:20.753Z,7.81
2023-04-30T23:01:47.739Z,7.81
2023-04-30T23:04:14.730Z,7.81
2023-04-30T23:06:43.118Z,7.81
2023-04-30T23:09:10.330Z,7.82
2023-04-30T23:11:37.322Z,7.82
2023-04-30T23:14:04.875Z,7.80
2023-04-30T23:16:31.896Z,7.70
2023-04-30T23:18:59.116Z,7.57
2023-04-30T23:21:26.899Z,7.46
2023-04-30T23:23:53.937Z,7.35
2023-04-30T23:26:21.385Z,7.24
2023-04-30T23:28:48.562Z,7.16
2023-04-30T23:31:15.636Z,7.08
2023-04-30T23:33:42.588Z,7.03
2023-04-30T23:36:09.624Z,7.01
2023-04-30T23:38:36.590Z,7.03
2023-04-30T23:41:03.577Z,7.07
2023-04-30T23:43:31.640Z,7.10
2023-04-30T23:45:59.504Z,7.13
2023-04-30T23:48:26.510Z,7.16
2023-04-30T23:51:04.418Z,7.18
2023-04-30T23:53:31.499Z,7.17
2023-04-30T23:55:58.497Z,7.10
2023-04-30T23:58:25.889Z,7.03
